sensor_id;sensor_type;location;lat;lon;timestamp;pressure;altitude;pressure_sealevel;temperature;humidity
16777;BME280;8505;49.456;8.164;2023-05-02T00:02:04;99871.47;;;11.71;77.91
16777;BME280;8505;49.456;8.164;2023-05-02T00:04:32;99872.66;;;11.60;78.75
16777;BME280;8505;49.456;8.164;2023-05-02T00:07:00;99870.56;;;11.56;78.31
16777;BME280;8505;49.456;8.164;2023-05-02T00:09:28;99879.16;;;11.58;78.80
16777;BME280;8505;49.456;8.164;2023-05-02T00:11:57;99875.13;;;11.39;79.70
16777;BME280;8505;49.456;8.164;2023-05-02T00:14:25;99879.59;;;11.39;79.72
16777;BME280;8505;49.456;8.164;2023-05-02T00:16:52;99889.41;;;11.30;80.06
16777;BME280;8505;49.456;8.164;2023-05-02T00:19:21;99884.97;;;11.22;80.68
16777;BME280;8505;49.456;8.164;2023-05-02T00:21:48;99889.47;;;11.14;80.75
16777;BME280;8505;49.456;8.164;2023-05-02T00:24:17;99891.31;;;11.05;80.41
16777;BME280;8505;49.456;8.164;2023-05-02T00:26:44;99884.19;;;11.06;79.95
16777;BME280;8505;49.456;8.164;2023-05-02T00:29:14;99884.38;;;11.04;79.29
16777;BME280;8505;49.456;8.164;2023-05-02T00:31:42;99887.19;;;11.03;78.83
16777;BME280;8505;49.456;8.164;2023-05-02T00:34:09;99887.03;;;11.04;79.52
16777;BME280;8505;49.456;8.164;2023-05-02T00:36:37;99886.84;;;11.06;79.32
16777;BME280;8505;49.456;8.164;2023-05-02T00:39:05;99892.97;;;11.06;79.83
16777;BME280;8505;49.456;8.164;2023-05-02T00:41:33;99887.38;;;11.01;79.81
16777;BME280;8505;49.456;8.164;2023-05-02T00:44:01;99887.72;;;10.90;80.10
16777;BME280;8505;49.456;8.164;2023-05-02T00:46:30;99889.25;;;10.84;80.46
16777;BME280;8505;49.456;8.164;2023-05-02T00:48:58;99878.13;;;10.81;80.38
16777;BME280;8505;49.456;8.164;2023-05-02T00:51:27;99882.81;;;10.71;80.56
16777;BME280;8505;49.456;8.164;2023-05-02T00:53:55;99876.88;;;10.61;81.52
16777;BME280;8505;49.456;8.164;2023-05-02T00:56:23;99879.69;;;10.51;82.28
16777;BME280;8505;49.456;8.164;2023-05-02T00:58:50;99875.88;;;10.45;82.74
16777;BME280;8505;49.456;8.164;2023-05-02T01:01:32;99879.19;;;10.39;82.89
16777;BME280;8505;49.456;8.164;2023-05-02T01:04:13;99890.78;;;10.38;83.05
16777;BME280;8505;49.456;8.164;2023-05-02T01:06:55;99884.84;;;10.28;83.75
16777;BME280;8505;49.456;8.164;2023-05-02T01:09:35;99892.44;;;10.31;82.99
16777;BME280;8505;49.456;8.164;2023-05-02T01:12:11;99887.16;;;10.39;82.55
16777;BME280;8505;49.456;8.164;2023-05-02T01:14:46;99887.81;;;10.33;82.55
16777;BME280;8505;49.456;8.164;2023-05-02T01:17:19;99901.38;;;10.30;82.84
16777;BME280;8505;49.456;8.164;2023-05-02T01:19:52;99900.72;;;10.20;83.26
16777;BME280;8505;49.456;8.164;2023-05-02T01:22:23;99905.50;;;10.17;83.46
16777;BME280;8505;49.456;8.164;2023-05-02T01:24:59;99903.34;;;10.20;82.99
16777;BME280;8505;49.456;8.164;2023-05-02T01:27:35;99902.38;;;10.21;83.16
16777;BME280;8505;49.456;8.164;2023-05-02T01:30:06;99901.34;;;10.14;83.31
16777;BME280;8505;49.456;8.164;2023-05-02T01:32:36;99898.22;;;10.10;83.58
16777;BME280;8505;49.456;8.164;2023-05-02T01:35:07;99907.63;;;10.05;83.93
16777;BME280;8505;49.456;8.164;2023-05-02T01:37:36;99905.94;;;9.96;84.25
16777;BME280;8505;49.456;8.164;2023-05-02T01:40:06;99910.91;;;9.91;84.14
16777;BME280;8505;49.456;8.164;2023-05-02T01:42:35;99914.34;;;9.83;84.68
16777;BME280;8505;49.456;8.164;2023-05-02T01:45:06;99917.16;;;9.82;85.13
16777;BME280;8505;49.456;8.164;2023-05-02T01:47:35;99920.16;;;9.87;84.60
16777;BME280;8505;49.456;8.164;2023-05-02T01:50:06;99921.47;;;9.74;84.94
16777;BME280;8505;49.456;8.164;2023-05-02T01:52:35;99929.41;;;9.83;84.65
16777;BME280;8505;49.456;8.164;2023-05-02T01:55:05;99923.44;;;9.72;84.65
16777;BME280;8505;49.456;8.164;2023-05-02T01:57:36;99930.69;;;9.70;85.16
16777;BME280;8505;49.456;8.164;2023-05-02T02:00:08;99935.47;;;9.67;85.25
16777;BME280;8505;49.456;8.164;2023-05-02T02:02:38;99934.41;;;9.52;86.01
16777;BME280;8505;49.456;8.164;2023-05-02T02:05:08;99942.34;;;9.52;86.25
16777;BME280;8505;49.456;8.164;2023-05-02T02:07:37;99944.00;;;9.53;86.31
16777;BME280;8505;49.456;8.164;2023-05-02T02:10:05;99950.13;;;9.53;86.35
16777;BME280;8505;49.456;8.164;2023-05-02T02:12:37;99946.50;;;9.54;86.26
16777;BME280;8505;49.456;8.164;2023-05-02T02:15:13;99958.75;;;9.55;85.84
16777;BME280;8505;49.456;8.164;2023-05-02T02:17:47;99959.19;;;9.51;86.66
16777;BME280;8505;49.456;8.164;2023-05-02T02:20:17;99953.75;;;9.44;86.74
16777;BME280;8505;49.456;8.164;2023-05-02T02:22:46;99967.22;;;9.33;87.44
16777;BME280;8505;49.456;8.164;2023-05-02T02:25:15;99964.75;;;9.31;87.52
16777;BME280;8505;49.456;8.164;2023-05-02T02:27:44;99958.25;;;9.26;87.62
16777;BME280;8505;49.456;8.164;2023-05-02T02:30:13;99963.53;;;9.26;87.83
16777;BME280;8505;49.456;8.164;2023-05-02T02:32:41;99961.22;;;9.23;87.68
16777;BME280;8505;49.456;8.164;2023-05-02T02:35:10;99962.16;;;9.14;88.38
16777;BME280;8505;49.456;8.164;2023-05-02T02:37:40;99970.63;;;9.17;88.31
16777;BME280;8505;49.456;8.164;2023-05-02T02:40:18;99974.09;;;9.18;87.77
16777;BME280;8505;49.456;8.164;2023-05-02T02:42:54;99975.06;;;9.17;88.45
16777;BME280;8505;49.456;8.164;2023-05-02T02:45:33;99964.66;;;9.15;88.13
16777;BME280;8505;49.456;8.164;2023-05-02T02:48:10;99974.91;;;9.18;87.94
16777;BME280;8505;49.456;8.164;2023-05-02T02:50:52;99970.28;;;9.20;87.79
16777;BME280;8505;49.456;8.164;2023-05-02T02:53:25;99972.94;;;9.20;88.08
16777;BME280;8505;49.456;8.164;2023-05-02T02:55:57;99977.09;;;9.23;87.58
16777;BME280;8505;49.456;8.164;2023-05-02T02:58:32;99980.34;;;9.17;87.17
16777;BME280;8505;49.456;8.164;2023-05-02T03:01:08;99978.19;;;9.12;87.59
16777;BME280;8505;49.456;8.164;2023-05-02T03:03:39;99982.50;;;9.13;88.06
16777;BME280;8505;49.456;8.164;2023-05-02T03:06:08;99982.00;;;9.18;87.64
16777;BME280;8505;49.456;8.164;2023-05-02T03:08:39;99987.91;;;9.12;88.23
16777;BME280;8505;49.456;8.164;2023-05-02T03:11:07;99993.72;;;9.15;88.14
16777;BME280;8505;49.456;8.164;2023-05-02T03:13:35;100003.00;;;9.19;87.84
16777;BME280;8505;49.456;8.164;2023-05-02T03:16:34;99998.38;;;9.21;87.61
16777;BME280;8505;49.456;8.164;2023-05-02T03:19:02;100009.63;;;9.23;87.50
16777;BME280;8505;49.456;8.164;2023-05-02T03:21:30;100003.16;;;9.18;87.90
16777;BME280;8505;49.456;8.164;2023-05-02T03:23:58;100009.81;;;9.04;88.14
16777;BME280;8505;49.456;8.164;2023-05-02T03:26:27;100006.69;;;9.01;89.16
16777;BME280;8505;49.456;8.164;2023-05-02T03:28:55;100008.16;;;9.03;88.87
16777;BME280;8505;49.456;8.164;2023-05-02T03:31:23;100008.78;;;8.97;88.68
16777;BME280;8505;49.456;8.164;2023-05-02T03:33:53;100008.63;;;8.99;88.93
16777;BME280;8505;49.456;8.164;2023-05-02T03:36:21;100010.94;;;9.02;89.30
16777;BME280;8505;49.456;8.164;2023-05-02T03:38:49;100017.47;;;9.07;89.03
16777;BME280;8505;49.456;8.164;2023-05-02T03:41:17;100011.84;;;9.10;88.46
16777;BME280;8505;49.456;8.164;2023-05-02T03:43:46;100018.47;;;9.14;88.26
16777;BME280;8505;49.456;8.164;2023-05-02T03:46:14;100026.44;;;9.22;88.31
16777;BME280;8505;49.456;8.164;2023-05-02T03:48:42;100031.75;;;9.22;88.02
16777;BME280;8505;49.456;8.164;2023-05-02T03:51:13;100029.44;;;9.27;88.05
16777;BME280;8505;49.456;8.164;2023-05-02T03:53:41;100030.50;;;9.34;87.91
16777;BME280;8505;49.456;8.164;2023-05-02T03:56:08;100033.34;;;9.41;87.03
16777;BME280;8505;49.456;8.164;2023-05-02T03:58:36;100042.25;;;9.40;87.36
16777;BME280;8505;49.456;8.164;2023-05-02T04:01:12;100041.63;;;9.46;87.10
16777;BME280;8505;49.456;8.164;2023-05-02T04:03:40;100049.13;;;9.59;86.53
16777;BME280;8505;49.456;8.164;2023-05-02T04:06:09;100047.03;;;9.62;86.12
16777;BME280;8505;49.456;8.164;2023-05-02T04:08:40;100054.13;;;9.70;86.09
16777;BME280;8505;49.456;8.164;2023-05-02T04:11:07;100067.88;;;9.73;85.90
16777;BME280;8505;49.456;8.164;2023-05-02T04:13:35;100061.78;;;9.73;86.09
16777;BME280;8505;49.456;8.164;2023-05-02T04:16:03;100072.19;;;9.74;85.77
16777;BME280;8505;49.456;8.164;2023-05-02T04:18:31;100069.75;;;9.81;85.88
16777;BME280;8505;49.456;8.164;2023-05-02T04:20:59;100063.31;;;9.84;85.82
16777;BME280;8505;49.456;8.164;2023-05-02T04:23:27;100076.78;;;9.98;85.29
16777;BME280;8505;49.456;8.164;2023-05-02T04:25:56;100081.56;;;10.03;85.32
16777;BME280;8505;49.456;8.164;2023-05-02T04:28:24;100076.97;;;10.05;84.78
16777;BME280;8505;49.456;8.164;2023-05-02T04:30:52;100071.34;;;10.08;84.80
16777;BME280;8505;49.456;8.164;2023-05-02T04:33:19;100078.63;;;10.06;85.06
16777;BME280;8505;49.456;8.164;2023-05-02T04:35:47;100071.53;;;10.14;84.64
16777;BME280;8505;49.456;8.164;2023-05-02T04:38:15;100087.13;;;10.18;84.61
16777;BME280;8505;49.456;8.164;2023-05-02T04:40:43;100081.00;;;10.25;84.28
16777;BME280;8505;49.456;8.164;2023-05-02T04:43:12;100087.81;;;10.28;84.16
16777;BME280;8505;49.456;8.164;2023-05-02T04:45:40;100088.84;;;10.35;84.00
16777;BME280;8505;49.456;8.164;2023-05-02T04:48:08;100092.97;;;10.37;83.79
16777;BME280;8505;49.456;8.164;2023-05-02T04:50:35;100096.97;;;10.41;83.43
16777;BME280;8505;49.456;8.164;2023-05-02T04:53:03;100101.59;;;10.47;83.23
16777;BME280;8505;49.456;8.164;2023-05-02T04:55:31;100111.41;;;10.55;82.67
16777;BME280;8505;49.456;8.164;2023-05-02T04:57:59;100112.84;;;10.49;83.46
16777;BME280;8505;49.456;8.164;2023-05-02T05:00:28;100121.00;;;10.64;82.10
16777;BME280;8505;49.456;8.164;2023-05-02T05:02:56;100125.84;;;10.77;81.92
16777;BME280;8505;49.456;8.164;2023-05-02T05:05:27;100117.91;;;10.85;81.27
16777;BME280;8505;49.456;8.164;2023-05-02T05:07:54;100128.69;;;10.91;81.31
16777;BME280;8505;49.456;8.164;2023-05-02T05:10:22;100130.69;;;10.98;80.79
16777;BME280;8505;49.456;8.164;2023-05-02T05:12:50;100138.78;;;11.04;80.78
16777;BME280;8505;49.456;8.164;2023-05-02T05:15:19;100139.63;;;11.05;80.11
16777;BME280;8505;49.456;8.164;2023-05-02T05:17:49;100147.91;;;11.10;80.35
16777;BME280;8505;49.456;8.164;2023-05-02T05:20:17;100151.38;;;11.10;80.05
16777;BME280;8505;49.456;8.164;2023-05-02T05:22:45;100148.38;;;11.05;80.42
16777;BME280;8505;49.456;8.164;2023-05-02T05:25:13;100155.53;;;11.05;80.48
16777;BME280;8505;49.456;8.164;2023-05-02T05:27:41;100162.97;;;11.25;80.12
16777;BME280;8505;49.456;8.164;2023-05-02T05:30:09;100173.25;;;11.12;80.29
16777;BME280;8505;49.456;8.164;2023-05-02T05:32:37;100169.28;;;11.16;80.21
16777;BME280;8505;49.456;8.164;2023-05-02T05:35:07;100175.56;;;11.07;80.35
16777;BME280;8505;49.456;8.164;2023-05-02T05:37:35;100174.59;;;11.16;80.46
16777;BME280;8505;49.456;8.164;2023-05-02T05:40:06;100175.75;;;11.22;80.18
16777;BME280;8505;49.456;8.164;2023-05-02T05:42:34;100174.09;;;11.21;80.21
16777;BME280;8505;49.456;8.164;2023-05-02T05:45:25;100174.56;;;11.49;79.61
16777;BME280;8505;49.456;8.164;2023-05-02T05:47:53;100192.16;;;11.66;78.88
16777;BME280;8505;49.456;8.164;2023-05-02T05:50:22;100190.66;;;11.71;78.61
16777;BME280;8505;49.456;8.164;2023-05-02T05:52:50;100193.47;;;12.02;76.83
16777;BME280;8505;49.456;8.164;2023-05-02T05:55:18;100195.75;;;12.05;76.63
16777;BME280;8505;49.456;8.164;2023-05-02T05:57:45;100202.41;;;12.01;77.15
16777;BME280;8505;49.456;8.164;2023-05-02T06:00:14;100205.16;;;12.32;75.97
16777;BME280;8505;49.456;8.164;2023-05-02T06:02:42;100211.63;;;12.30;75.59
16777;BME280;8505;49.456;8.164;2023-05-02T06:05:10;100218.16;;;12.11;76.67
16777;BME280;8505;49.456;8.164;2023-05-02T06:07:39;100217.03;;;12.52;75.13
16777;BME280;8505;49.456;8.164;2023-05-02T06:10:07;100222.28;;;12.69;74.39
16777;BME280;8505;49.456;8.164;2023-05-02T06:12:36;100232.25;;;12.67;74.11
16777;BME280;8505;49.456;8.164;2023-05-02T06:15:04;100231.94;;;12.62;74.72
16777;BME280;8505;49.456;8.164;2023-05-02T06:17:32;100226.44;;;12.71;74.62
16777;BME280;8505;49.456;8.164;2023-05-02T06:20:00;100235.53;;;13.08;72.73
16777;BME280;8505;49.456;8.164;2023-05-02T06:22:28;100240.66;;;13.09;72.48
16777;BME280;8505;49.456;8.164;2023-05-02T06:24:57;100232.41;;;13.35;71.74
16777;BME280;8505;49.456;8.164;2023-05-02T06:27:26;100240.03;;;13.38;70.83
16777;BME280;8505;49.456;8.164;2023-05-02T06:29:54;100242.72;;;13.53;70.85
16777;BME280;8505;49.456;8.164;2023-05-02T06:32:22;100241.91;;;13.75;69.41
16777;BME280;8505;49.456;8.164;2023-05-02T06:34:49;100256.28;;;13.20;70.76
16777;BME280;8505;49.456;8.164;2023-05-02T06:37:17;100252.56;;;13.29;70.55
16777;BME280;8505;49.456;8.164;2023-05-02T06:39:45;100250.72;;;13.75;69.65
16777;BME280;8505;49.456;8.164;2023-05-02T06:42:14;100251.91;;;14.10;67.62
16777;BME280;8505;49.456;8.164;2023-05-02T06:44:42;100251.06;;;14.10;68.00
16777;BME280;8505;49.456;8.164;2023-05-02T06:47:10;100255.38;;;13.73;68.65
16777;BME280;8505;49.456;8.164;2023-05-02T06:49:37;100257.16;;;13.81;68.37
16777;BME280;8505;49.456;8.164;2023-05-02T06:52:05;100256.25;;;13.89;68.79
16777;BME280;8505;49.456;8.164;2023-05-02T06:54:33;100266.97;;;13.81;68.41
16777;BME280;8505;49.456;8.164;2023-05-02T06:57:01;100278.34;;;13.74;68.54
16777;BME280;8505;49.456;8.164;2023-05-02T06:59:30;100277.28;;;13.38;69.10
16777;BME280;8505;49.456;8.164;2023-05-02T07:01:58;100276.44;;;13.38;70.17
16777;BME280;8505;49.456;8.164;2023-05-02T07:04:30;100280.06;;;13.67;68.31
16777;BME280;8505;49.456;8.164;2023-05-02T07:06:58;100278.81;;;14.15;67.61
16777;BME280;8505;49.456;8.164;2023-05-02T07:09:26;100286.09;;;13.61;68.27
16777;BME280;8505;49.456;8.164;2023-05-02T07:11:54;100280.72;;;13.69;68.57
16777;BME280;8505;49.456;8.164;2023-05-02T07:14:22;100286.81;;;13.55;69.26
16777;BME280;8505;49.456;8.164;2023-05-02T07:16:52;100286.31;;;13.52;69.21
16777;BME280;8505;49.456;8.164;2023-05-02T07:19:20;100283.53;;;13.91;67.94
16777;BME280;8505;49.456;8.164;2023-05-02T07:21:48;100284.16;;;14.30;66.80
16777;BME280;8505;49.456;8.164;2023-05-02T07:24:15;100289.56;;;14.22;67.81
16777;BME280;8505;49.456;8.164;2023-05-02T07:26:43;100287.31;;;13.96;67.92
16777;BME280;8505;49.456;8.164;2023-05-02T07:29:11;100285.41;;;14.19;66.42
16777;BME280;8505;49.456;8.164;2023-05-02T07:31:39;100294.06;;;14.22;67.18
16777;BME280;8505;49.456;8.164;2023-05-02T07:34:08;100298.56;;;14.21;67.41
16777;BME280;8505;49.456;8.164;2023-05-02T07:36:36;100286.75;;;14.38;67.30
16777;BME280;8505;49.456;8.164;2023-05-02T07:39:03;100284.84;;;14.47;66.38
16777;BME280;8505;49.456;8.164;2023-05-02T07:41:31;100291.94;;;14.54;65.69
16777;BME280;8505;49.456;8.164;2023-05-02T07:43:59;100290.25;;;14.39;65.71
16777;BME280;8505;49.456;8.164;2023-05-02T07:46:27;100294.84;;;14.45;66.11
16777;BME280;8505;49.456;8.164;2023-05-02T07:48:54;100293.81;;;14.31;66.65
16777;BME280;8505;49.456;8.164;2023-05-02T07:51:24;100291.84;;;14.77;65.53
16777;BME280;8505;49.456;8.164;2023-05-02T07:53:52;100295.88;;;14.88;64.49
16777;BME280;8505;49.456;8.164;2023-05-02T07:56:23;100301.69;;;14.62;65.44
16777;BME280;8505;49.456;8.164;2023-05-02T07:58:51;100301.50;;;14.49;65.78
16777;BME280;8505;49.456;8.164;2023-05-02T08:01:19;100306.81;;;14.64;65.60
16777;BME280;8505;49.456;8.164;2023-05-02T08:03:47;100311.16;;;14.65;66.13
16777;BME280;8505;49.456;8.164;2023-05-02T08:06:15;100309.78;;;15.34;63.90
16777;BME280;8505;49.456;8.164;2023-05-02T08:08:45;100313.94;;;15.36;62.12
16777;BME280;8505;49.456;8.164;2023-05-02T08:11:12;100309.03;;;15.76;61.39
16777;BME280;8505;49.456;8.164;2023-05-02T08:13:41;100310.81;;;15.90;61.71
16777;BME280;8505;49.456;8.164;2023-05-02T08:16:08;100307.19;;;16.26;60.42
16777;BME280;8505;49.456;8.164;2023-05-02T08:18:36;100312.78;;;16.31;58.88
16777;BME280;8505;49.456;8.164;2023-05-02T08:21:04;100308.25;;;16.31;59.53
16777;BME280;8505;49.456;8.164;2023-05-02T08:23:32;100314.19;;;16.54;59.12
16777;BME280;8505;49.456;8.164;2023-05-02T08:26:01;100316.00;;;16.47;59.75
16777;BME280;8505;49.456;8.164;2023-05-02T08:28:29;100311.13;;;16.30;59.83
16777;BME280;8505;49.456;8.164;2023-05-02T08:30:57;100320.25;;;16.42;59.37
16777;BME280;8505;49.456;8.164;2023-05-02T08:33:25;100327.31;;;16.22;58.81
16777;BME280;8505;49.456;8.164;2023-05-02T08:35:53;100331.25;;;15.62;61.10
16777;BME280;8505;49.456;8.164;2023-05-02T08:38:21;100335.66;;;15.33;60.01
16777;BME280;8505;49.456;8.164;2023-05-02T08:40:49;100333.00;;;15.19;61.03
16777;BME280;8505;49.456;8.164;2023-05-02T08:43:18;100329.25;;;15.49;59.48
16777;BME280;8505;49.456;8.164;2023-05-02T08:45:48;100335.91;;;15.38;60.64
16777;BME280;8505;49.456;8.164;2023-05-02T08:48:16;100333.88;;;15.41;60.75
16777;BME280;8505;49.456;8.164;2023-05-02T08:50:45;100335.66;;;15.69;60.16
16777;BME280;8505;49.456;8.164;2023-05-02T08:53:15;100338.47;;;15.61;60.48
16777;BME280;8505;49.456;8.164;2023-05-02T08:55:44;100340.66;;;15.07;60.42
16777;BME280;8505;49.456;8.164;2023-05-02T08:58:13;100346.97;;;15.21;60.49
16777;BME280;8505;49.456;8.164;2023-05-02T09:00:45;100350.16;;;14.80;61.41
16777;BME280;8505;49.456;8.164;2023-05-02T09:03:27;100350.47;;;15.21;60.58
16777;BME280;8505;49.456;8.164;2023-05-02T09:06:03;100360.63;;;14.96;61.22
16777;BME280;8505;49.456;8.164;2023-05-02T09:08:32;100356.38;;;14.87;61.46
16777;BME280;8505;49.456;8.164;2023-05-02T09:11:00;100357.09;;;15.55;59.41
16777;BME280;8505;49.456;8.164;2023-05-02T09:13:30;100362.09;;;15.50;59.88
16777;BME280;8505;49.456;8.164;2023-05-02T09:16:00;100367.19;;;15.45;60.80
16777;BME280;8505;49.456;8.164;2023-05-02T09:18:31;100366.19;;;15.60;59.74
16777;BME280;8505;49.456;8.164;2023-05-02T09:21:00;100363.41;;;15.90;58.28
16777;BME280;8505;49.456;8.164;2023-05-02T09:23:32;100370.28;;;15.77;59.04
16777;BME280;8505;49.456;8.164;2023-05-02T09:26:01;100367.81;;;15.97;58.80
16777;BME280;8505;49.456;8.164;2023-05-02T09:28:39;100368.28;;;15.86;58.75
16777;BME280;8505;49.456;8.164;2023-05-02T09:31:12;100376.84;;;15.96;58.58
16777;BME280;8505;49.456;8.164;2023-05-02T09:33:44;100379.94;;;16.21;58.33
16777;BME280;8505;49.456;8.164;2023-05-02T09:36:13;100380.69;;;16.36;56.82
16777;BME280;8505;49.456;8.164;2023-05-02T09:38:42;100383.09;;;16.31;56.56
16777;BME280;8505;49.456;8.164;2023-05-02T09:41:10;100385.94;;;16.02;56.73
16777;BME280;8505;49.456;8.164;2023-05-02T09:43:38;100385.66;;;16.18;56.82
16777;BME280;8505;49.456;8.164;2023-05-02T09:46:09;100382.44;;;16.01;56.84
16777;BME280;8505;49.456;8.164;2023-05-02T09:48:53;100384.09;;;16.02;55.32
16777;BME280;8505;49.456;8.164;2023-05-02T09:51:23;100384.47;;;16.21;54.38
16777;BME280;8505;49.456;8.164;2023-05-02T09:53:51;100390.13;;;16.81;53.02
16777;BME280;8505;49.456;8.164;2023-05-02T09:56:19;100379.97;;;17.05;51.63
16777;BME280;8505;49.456;8.164;2023-05-02T09:58:49;100387.56;;;17.42;51.73
16777;BME280;8505;49.456;8.164;2023-05-02T10:01:19;100388.25;;;17.16;53.04
16777;BME280;8505;49.456;8.164;2023-05-02T10:03:47;100388.81;;;17.05;52.27
16777;BME280;8505;49.456;8.164;2023-05-02T10:06:15;100402.19;;;17.05;52.40
16777;BME280;8505;49.456;8.164;2023-05-02T10:08:44;100400.78;;;16.53;52.53
16777;BME280;8505;49.456;8.164;2023-05-02T10:11:13;100408.75;;;16.68;52.50
16777;BME280;8505;49.456;8.164;2023-05-02T10:13:42;100408.56;;;17.04;51.73
16777;BME280;8505;49.456;8.164;2023-05-02T10:16:11;100410.53;;;16.40;53.35
16777;BME280;8505;49.456;8.164;2023-05-02T10:18:44;100409.13;;;16.93;52.57
16777;BME280;8505;49.456;8.164;2023-05-02T10:21:16;100409.84;;;16.52;53.17
16777;BME280;8505;49.456;8.164;2023-05-02T10:23:44;100407.34;;;16.72;53.43
16777;BME280;8505;49.456;8.164;2023-05-02T10:26:14;100403.13;;;16.42;52.91
16777;BME280;8505;49.456;8.164;2023-05-02T10:28:43;100412.00;;;16.64;53.71
16777;BME280;8505;49.456;8.164;2023-05-02T10:31:12;100407.13;;;17.02;53.26
16777;BME280;8505;49.456;8.164;2023-05-02T10:33:41;100398.81;;;16.90;51.97
16777;BME280;8505;49.456;8.164;2023-05-02T10:36:10;100402.03;;;17.13;51.61
16777;BME280;8505;49.456;8.164;2023-05-02T10:38:40;100394.75;;;17.42;51.01
16777;BME280;8505;49.456;8.164;2023-05-02T10:41:12;100388.84;;;17.12;51.63
16777;BME280;8505;49.456;8.164;2023-05-02T10:43:45;100383.88;;;18.17;48.48
16777;BME280;8505;49.456;8.164;2023-05-02T10:46:30;100397.09;;;18.38;48.04
16777;BME280;8505;49.456;8.164;2023-05-02T10:49:04;100375.09;;;19.27;46.25
16777;BME280;8505;49.456;8.164;2023-05-02T10:51:33;100376.53;;;19.29;46.29
16777;BME280;8505;49.456;8.164;2023-05-02T10:54:20;100380.47;;;19.20;45.18
16777;BME280;8505;49.456;8.164;2023-05-02T10:57:02;100387.34;;;18.04;47.72
16777;BME280;8505;49.456;8.164;2023-05-02T10:59:34;100390.47;;;18.54;45.94
16777;BME280;8505;49.456;8.164;2023-05-02T11:02:02;100378.44;;;19.16;45.52
16777;BME280;8505;49.456;8.164;2023-05-02T11:05:07;100376.69;;;19.92;43.24
16777;BME280;8505;49.456;8.164;2023-05-02T11:07:36;100373.50;;;20.33;40.68
16777;BME280;8505;49.456;8.164;2023-05-02T11:10:24;100372.47;;;20.59;40.88
16777;BME280;8505;49.456;8.164;2023-05-02T11:12:53;100382.75;;;20.06;41.33
16777;BME280;8505;49.456;8.164;2023-05-02T11:15:54;100379.16;;;18.39;44.78
16777;BME280;8505;49.456;8.164;2023-05-02T11:18:23;100380.78;;;18.40;43.96
16777;BME280;8505;49.456;8.164;2023-05-02T11:30:05;100373.44;;;17.61;46.77
16777;BME280;8505;49.456;8.164;2023-05-02T11:33:15;100377.16;;;17.67;46.41
16777;BME280;8505;49.456;8.164;2023-05-02T11:35:44;100373.91;;;17.85;46.39
16777;BME280;8505;49.456;8.164;2023-05-02T11:38:16;100375.41;;;18.00;45.03
16777;BME280;8505;49.456;8.164;2023-05-02T11:40:57;100371.09;;;17.45;46.93
16777;BME280;8505;49.456;8.164;2023-05-02T11:43:26;100366.44;;;17.60;46.00
16777;BME280;8505;49.456;8.164;2023-05-02T11:45:58;100365.91;;;18.11;45.64
16777;BME280;8505;49.456;8.164;2023-05-02T11:48:28;100370.81;;;17.74;44.97
16777;BME280;8505;49.456;8.164;2023-05-02T11:50:58;100365.31;;;18.29;44.89
16777;BME280;8505;49.456;8.164;2023-05-02T11:53:30;100357.69;;;18.32;44.41
16777;BME280;8505;49.456;8.164;2023-05-02T11:55:59;100353.97;;;18.40;43.46
16777;BME280;8505;49.456;8.164;2023-05-02T11:58:28;100361.59;;;18.49;43.43
16777;BME280;8505;49.456;8.164;2023-05-02T12:00:59;100351.28;;;19.44;41.78
16777;BME280;8505;49.456;8.164;2023-05-02T12:03:37;100355.00;;;18.72;42.95
16777;BME280;8505;49.456;8.164;2023-05-02T12:06:10;100358.72;;;18.51;42.95
16777;BME280;8505;49.456;8.164;2023-05-02T12:08:41;100360.38;;;18.58;43.94
16777;BME280;8505;49.456;8.164;2023-05-02T12:11:11;100357.50;;;19.37;42.62
16777;BME280;8505;49.456;8.164;2023-05-02T12:13:43;100348.06;;;19.15;43.17
16777;BME280;8505;49.456;8.164;2023-05-02T12:16:12;100376.84;;;18.09;47.25
16777;BME280;8505;49.456;8.164;2023-05-02T12:18:41;100369.81;;;17.89;48.84
16777;BME280;8505;49.456;8.164;2023-05-02T12:21:09;100376.47;;;17.52;49.67
16777;BME280;8505;49.456;8.164;2023-05-02T12:23:39;100382.31;;;16.86;50.33
16777;BME280;8505;49.456;8.164;2023-05-02T12:26:18;100388.50;;;17.21;48.30
16777;BME280;8505;49.456;8.164;2023-05-02T12:28:48;100387.38;;;17.50;46.03
16777;BME280;8505;49.456;8.164;2023-05-02T12:31:17;100388.59;;;18.02;45.70
16777;BME280;8505;49.456;8.164;2023-05-02T12:33:45;100383.59;;;17.86;46.95
16777;BME280;8505;49.456;8.164;2023-05-02T12:36:15;100384.25;;;17.33;47.82
16777;BME280;8505;49.456;8.164;2023-05-02T12:38:48;100398.50;;;18.21;46.47
16777;BME280;8505;49.456;8.164;2023-05-02T12:41:19;100390.00;;;17.91;48.01
16777;BME280;8505;49.456;8.164;2023-05-02T12:43:56;100382.44;;;18.34;47.38
16777;BME280;8505;49.456;8.164;2023-05-02T12:46:26;100388.22;;;18.44;46.83
16777;BME280;8505;49.456;8.164;2023-05-02T12:49:01;100380.81;;;18.73;45.30
16777;BME280;8505;49.456;8.164;2023-05-02T12:51:29;100377.91;;;18.87;44.98
16777;BME280;8505;49.456;8.164;2023-05-02T12:53:59;100373.09;;;19.09;44.13
16777;BME280;8505;49.456;8.164;2023-05-02T12:56:28;100370.00;;;19.12;42.36
16777;BME280;8505;49.456;8.164;2023-05-02T12:58:58;100377.47;;;18.90;42.74
16777;BME280;8505;49.456;8.164;2023-05-02T13:01:32;100372.19;;;19.79;41.03
16777;BME280;8505;49.456;8.164;2023-05-02T13:04:01;100364.72;;;19.82;39.94
16777;BME280;8505;49.456;8.164;2023-05-02T13:06:29;100368.19;;;19.89;41.42
16777;BME280;8505;49.456;8.164;2023-05-02T13:08:57;100368.41;;;20.18;39.33
16777;BME280;8505;49.456;8.164;2023-05-02T13:11:26;100358.16;;;21.02;38.67
16777;BME280;8505;49.456;8.164;2023-05-02T13:13:54;100355.16;;;21.46;37.14
16777;BME280;8505;49.456;8.164;2023-05-02T13:16:22;100358.00;;;21.15;38.35
16777;BME280;8505;49.456;8.164;2023-05-02T13:18:51;100361.09;;;20.57;39.57
16777;BME280;8505;49.456;8.164;2023-05-02T13:21:19;100358.47;;;20.69;40.07
16777;BME280;8505;49.456;8.164;2023-05-02T13:23:47;100358.69;;;19.93;41.44
16777;BME280;8505;49.456;8.164;2023-05-02T13:26:15;100365.53;;;20.45;40.31
16777;BME280;8505;49.456;8.164;2023-05-02T13:28:45;100356.56;;;20.94;39.24
16777;BME280;8505;49.456;8.164;2023-05-02T13:31:12;100351.59;;;21.34;38.58